createdAt,value
2022-12-15T00:01:46.994Z,20.33
2022-12-15T00:04:33.177Z,20.93
2022-12-15T00:07:18.970Z,20.60
2022-12-15T00:10:04.580Z,19.40
2022-12-15T00:12:49.983Z,21.70
2022-12-15T00:15:35.923Z,20.23
2022-12-15T00:18:25.620Z,20.30
2022-12-15T00:21:12.038Z,20.40
2022-12-15T00:23:57.359Z,21.10
2022-12-15T00:26:43.607Z,20.73
2022-12-15T00:29:29.468Z,19.90
2022-12-15T00:32:15.663Z,20.67
2022-12-15T00:35:03.160Z,19.37
2022-12-15T00:37:48.913Z,18.27
2022-12-15T00:40:17.366Z,19.57
2022-12-15T00:42:45.809Z,20.43
2022-12-15T00:45:18.097Z,20.07
2022-12-15T00:47:45.171Z,18.77
2022-12-15T00:50:32.610Z,19.20
2022-12-15T00:53:18.149Z,21.27
2022-12-15T00:56:03.907Z,19.30
2022-12-15T00:58:49.141Z,17.93
2022-12-15T01:01:35.407Z,20.23
2022-12-15T01:04:20.886Z,17.83
2022-12-15T01:07:08.388Z,19.23
2022-12-15T01:09:54.317Z,19.30
2022-12-15T01:12:40.017Z,18.87
2022-12-15T01:15:26.711Z,18.57
2022-12-15T01:18:12.297Z,18.97
2022-12-15T01:20:40.473Z,18.10
2022-12-15T01:23:10.274Z,19.30
2022-12-15T01:25:40.283Z,17.90
2022-12-15T01:28:08.658Z,19.10
2022-12-15T01:30:36.690Z,19.00
2022-12-15T01:33:05.028Z,18.20
2022-12-15T01:35:33.664Z,18.50
2022-12-15T01:38:02.337Z,16.63
2022-12-15T01:40:46.619Z,18.40
2022-12-15T01:43:17.159Z,17.83
2022-12-15T01:46:03.834Z,18.03
2022-12-15T01:48:36.962Z,16.93
2022-12-15T01:51:16.011Z,18.83
2022-12-15T01:53:50.034Z,17.70
2022-12-15T01:56:20.977Z,18.37
2022-12-15T01:58:52.323Z,16.30
2022-12-15T02:01:20.452Z,17.63
2022-12-15T02:03:49.488Z,17.73
2022-12-15T02:06:21.646Z,18.10
2022-12-15T02:08:52.370Z,17.77
2022-12-15T02:11:40.525Z,17.83
2022-12-15T02:14:10.319Z,18.70
2022-12-15T02:16:51.612Z,17.23
2022-12-15T02:19:44.087Z,16.47
2022-12-15T02:22:22.859Z,18.87
2022-12-15T02:25:19.871Z,16.20
2022-12-15T02:27:57.874Z,17.77
2022-12-15T02:30:45.275Z,17.20
2022-12-15T02:33:21.393Z,17.13
2022-12-15T02:35:58.503Z,18.50
2022-12-15T02:38:35.636Z,17.13
2022-12-15T02:41:05.744Z,17.27
2022-12-15T02:43:39.688Z,17.20
2022-12-15T02:46:20.550Z,18.60
2022-12-15T02:49:00.319Z,17.10
2022-12-15T02:51:41.278Z,18.63
2022-12-15T02:54:33.045Z,16.70
2022-12-15T02:57:07.072Z,17.00
2022-12-15T02:59:46.353Z,17.77
2022-12-15T03:02:16.922Z,19.43
2022-12-15T03:04:45.658Z,18.77
2022-12-15T03:07:15.931Z,18.33
2022-12-15T03:09:44.030Z,17.23
2022-12-15T03:12:12.147Z,18.80
2022-12-15T03:14:40.512Z,16.67
2022-12-15T03:17:08.896Z,19.33
2022-12-15T03:19:38.860Z,18.67
2022-12-15T03:22:06.984Z,17.63
2022-12-15T03:24:35.454Z,18.13
2022-12-15T03:27:03.636Z,18.60
2022-12-15T03:29:32.007Z,17.40
2022-12-15T03:32:00.754Z,17.93
2022-12-15T03:34:29.202Z,20.00
2022-12-15T03:36:59.514Z,19.37
2022-12-15T03:39:27.570Z,21.17
2022-12-15T03:41:56.064Z,19.77
2022-12-15T03:44:24.475Z,19.80
2022-12-15T03:46:52.680Z,20.27
2022-12-15T03:49:20.671Z,18.17
2022-12-15T03:51:48.738Z,18.57
2022-12-15T03:54:18.721Z,19.83
2022-12-15T03:56:46.723Z,18.27
2022-12-15T03:59:15.447Z,19.43
2022-12-15T04:01:47.918Z,20.67
2022-12-15T04:04:16.436Z,19.47
2022-12-15T04:06:44.491Z,21.67
2022-12-15T04:09:12.552Z,19.27
2022-12-15T04:11:42.279Z,19.33
2022-12-15T04:14:10.923Z,19.20
2022-12-15T04:16:38.980Z,19.13
2022-12-15T04:19:24.673Z,21.67
2022-12-15T04:21:53.090Z,20.43
2022-12-15T04:24:38.674Z,19.87
2022-12-15T04:27:26.154Z,19.90
2022-12-15T04:30:11.301Z,22.67
2022-12-15T04:32:57.204Z,19.43
2022-12-15T04:35:42.848Z,20.27
2022-12-15T04:38:28.734Z,20.37
2022-12-15T04:41:14.467Z,19.67
2022-12-15T04:44:01.944Z,21.27
2022-12-15T04:46:48.147Z,19.60
2022-12-15T04:49:33.519Z,18.87
2022-12-15T04:52:19.238Z,19.60
2022-12-15T04:55:05.200Z,20.47
2022-12-15T04:57:51.475Z,21.27
2022-12-15T05:00:39.109Z,19.63
2022-12-15T05:03:25.451Z,22.03
2022-12-15T05:06:11.602Z,19.77
2022-12-15T05:08:56.978Z,22.00
2022-12-15T05:11:42.638Z,19.90
2022-12-15T05:14:28.025Z,20.63
2022-12-15T05:17:15.398Z,18.50
2022-12-15T05:20:01.180Z,20.27
2022-12-15T05:22:46.768Z,21.63
2022-12-15T05:25:32.306Z,19.90
2022-12-15T05:28:18.196Z,19.73
2022-12-15T05:31:03.954Z,21.03
2022-12-15T05:33:34.074Z,20.10
2022-12-15T05:36:02.629Z,20.53
2022-12-15T05:38:30.930Z,18.80
2022-12-15T05:40:59.540Z,20.37
2022-12-15T05:43:27.720Z,20.60
2022-12-15T05:45:56.168Z,21.10
2022-12-15T05:48:24.505Z,20.53
2022-12-15T05:50:54.819Z,20.23
2022-12-15T05:53:23.470Z,19.47
2022-12-15T05:55:51.734Z,22.00
2022-12-15T05:58:19.827Z,20.10
2022-12-15T06:00:48.093Z,20.90
2022-12-15T06:03:16.467Z,18.57
2022-12-15T06:05:53.072Z,21.43
2022-12-15T06:08:26.742Z,20.23
2022-12-15T06:10:55.149Z,20.00
2022-12-15T06:13:23.553Z,20.97
2022-12-15T06:15:58.966Z,20.73
2022-12-15T06:18:27.998Z,20.50
2022-12-15T06:21:01.860Z,18.87
2022-12-15T06:23:34.523Z,20.13
2022-12-15T06:26:10.015Z,20.20
2022-12-15T06:28:38.489Z,20.30
2022-12-15T06:31:08.795Z,19.87
2022-12-15T06:33:37.718Z,22.67
2022-12-15T06:36:06.835Z,19.70
2022-12-15T06:38:53.304Z,21.20
2022-12-15T06:41:27.720Z,21.17
2022-12-15T06:44:05.326Z,21.27
2022-12-15T06:46:35.181Z,19.73
2022-12-15T06:49:13.107Z,21.07
2022-12-15T06:51:51.625Z,20.97
2022-12-15T06:54:21.343Z,21.50
2022-12-15T06:56:50.001Z,21.70
2022-12-15T06:59:18.513Z,19.97
2022-12-15T07:01:47.540Z,21.03
2022-12-15T07:04:15.803Z,21.83
2022-12-15T07:06:45.312Z,21.40
2022-12-15T07:09:17.287Z,20.37
2022-12-15T07:11:50.237Z,21.30
2022-12-15T07:14:18.531Z,23.10
2022-12-15T07:16:46.757Z,22.00
2022-12-15T07:19:15.206Z,21.50
2022-12-15T07:21:43.704Z,20.30
2022-12-15T07:24:13.179Z,20.83
2022-12-15T07:26:41.504Z,22.00
2022-12-15T07:29:11.821Z,22.07
2022-12-15T07:31:40.358Z,21.87
2022-12-15T07:34:08.478Z,22.90
2022-12-15T07:36:52.520Z,21.83
2022-12-15T07:39:21.522Z,21.63
2022-12-15T07:41:50.214Z,21.77
2022-12-15T07:44:20.278Z,22.47
2022-12-15T07:46:59.213Z,21.47
2022-12-15T07:49:29.664Z,21.90
2022-12-15T07:51:58.882Z,21.80
2022-12-15T07:54:27.076Z,21.17
2022-12-15T07:56:55.843Z,21.77
2022-12-15T07:59:26.153Z,21.40
2022-12-15T08:01:59.638Z,20.80
2022-12-15T08:04:35.767Z,22.33
2022-12-15T08:10:18.613Z,23.83
2022-12-15T08:18:58.210Z,21.30
2022-12-15T08:24:42.152Z,21.40
2022-12-15T08:27:21.958Z,21.20
2022-12-15T08:29:53.567Z,23.40
2022-12-15T08:32:47.309Z,22.73
2022-12-15T08:35:56.688Z,20.73
2022-12-15T08:38:28.940Z,21.63
2022-12-15T08:40:59.634Z,22.33
2022-12-15T08:43:28.282Z,22.27
2022-12-15T08:46:08.524Z,23.00
2022-12-15T08:48:58.653Z,22.23
2022-12-15T08:51:50.896Z,23.50
2022-12-15T08:54:21.034Z,21.40
2022-12-15T08:56:57.930Z,22.83
2022-12-15T08:59:28.908Z,21.90
2022-12-15T09:02:10.950Z,21.33
2022-12-15T09:04:43.411Z,22.43
2022-12-15T09:07:18.558Z,21.67
2022-12-15T09:10:02.691Z,21.57
2022-12-15T09:12:34.424Z,23.00
2022-12-15T09:18:02.419Z,21.70
2022-12-15T09:20:51.335Z,21.97
2022-12-15T09:23:25.116Z,21.90
2022-12-15T09:25:55.529Z,23.37
2022-12-15T09:28:33.679Z,21.97
2022-12-15T09:40:25.726Z,21.37
2022-12-15T09:43:33.284Z,22.47
2022-12-15T09:46:07.760Z,22.87
2022-12-15T09:48:46.047Z,23.43
2022-12-15T09:51:19.267Z,21.60
2022-12-15T09:53:56.700Z,23.00
2022-12-15T09:56:41.388Z,24.27
2022-12-15T09:59:22.311Z,21.50
2022-12-15T10:05:06.609Z,24.03
2022-12-15T10:07:36.933Z,23.20
2022-12-15T10:10:28.510Z,23.30
2022-12-15T11:21:28.902Z,23.83
2022-12-15T11:26:59.535Z,22.97
2022-12-15T11:29:52.868Z,24.83
2022-12-15T11:32:34.678Z,24.70
2022-12-15T11:38:17.847Z,23.63
2022-12-15T11:54:05.324Z,22.67
2022-12-15T11:56:49.215Z,24.57
2022-12-15T12:13:20.750Z,23.00
2022-12-15T12:16:24.948Z,24.43
2022-12-15T12:28:15.380Z,23.63
2022-12-15T12:31:17.894Z,25.70
2022-12-15T12:36:52.477Z,22.67
2022-12-15T12:42:13.011Z,24.77
2022-12-15T12:44:47.092Z,23.90
2022-12-15T12:47:33.237Z,25.47
2022-12-15T12:50:07.382Z,25.73
2022-12-15T12:52:42.937Z,25.03
2022-12-15T12:55:29.062Z,24.47
2022-12-15T13:01:08.970Z,24.53
2022-12-15T13:03:40.662Z,22.73
2022-12-15T13:06:47.456Z,22.13
2022-12-15T13:09:27.045Z,23.07
2022-12-15T13:12:15.015Z,23.47
2022-12-15T13:14:51.730Z,22.50
2022-12-15T13:17:38.258Z,23.27
2022-12-15T13:20:25.820Z,24.17
2022-12-15T13:23:43.827Z,23.53
2022-12-15T13:30:02.394Z,22.90
2022-12-15T13:46:12.588Z,23.37
2022-12-15T13:48:43.277Z,22.57
2022-12-15T14:02:04.042Z,22.90
2022-12-15T14:04:39.467Z,24.87
2022-12-15T14:07:20.373Z,24.93
2022-12-15T14:09:59.583Z,25.63
2022-12-15T14:15:39.066Z,23.50
2022-12-15T14:18:24.388Z,24.50
2022-12-15T14:20:53.512Z,24.20
2022-12-15T14:23:22.619Z,23.43
2022-12-15T14:25:55.199Z,24.60
2022-12-15T14:28:32.908Z,24.20
2022-12-15T14:31:17.011Z,23.90
2022-12-15T14:33:50.584Z,25.63
2022-12-15T14:36:22.105Z,25.03
2022-12-15T14:38:52.908Z,24.43
2022-12-15T14:41:25.251Z,25.60
2022-12-15T14:44:37.086Z,25.20
2022-12-15T14:46:48.486Z,22.10
2022-12-15T14:49:25.688Z,26.30
2022-12-15T14:52:06.964Z,23.80
2022-12-15T14:54:39.265Z,22.23
2022-12-15T14:57:17.643Z,23.23
2022-12-15T14:59:48.970Z,23.10
2022-12-15T15:02:25.341Z,25.10
2022-12-15T15:05:07.839Z,23.77
2022-12-15T15:07:38.964Z,24.07
2022-12-15T15:10:24.497Z,22.83
2022-12-15T15:12:55.118Z,22.83
2022-12-15T15:15:27.250Z,22.47
2022-12-15T15:17:58.292Z,22.73
2022-12-15T15:20:30.817Z,22.53
2022-12-15T15:23:13.549Z,23.00
2022-12-15T15:25:46.166Z,24.50
2022-12-15T15:28:24.339Z,24.10
2022-12-15T15:30:56.380Z,23.50
2022-12-15T15:33:28.541Z,24.93
2022-12-15T15:36:00.115Z,24.20
2022-12-15T15:38:34.034Z,23.47
2022-12-15T15:41:04.366Z,25.50
2022-12-15T15:43:34.660Z,23.53
2022-12-15T15:46:05.941Z,23.97
2022-12-15T15:48:37.198Z,23.30
2022-12-15T15:51:22.522Z,24.20
2022-12-15T15:53:51.741Z,23.90
2022-12-15T15:56:21.312Z,22.43
2022-12-15T15:58:50.451Z,24.60
2022-12-15T16:01:20.151Z,25.30
2022-12-15T16:03:48.861Z,23.73
2022-12-15T16:06:20.714Z,24.73
2022-12-15T16:08:54.472Z,24.20
2022-12-15T16:11:23.944Z,24.23
2022-12-15T16:13:52.825Z,24.77
2022-12-15T16:16:23.510Z,25.07
2022-12-15T16:18:52.948Z,24.53
2022-12-15T16:21:23.671Z,25.13
2022-12-15T16:23:57.483Z,24.43
2022-12-15T16:26:30.330Z,24.93
2022-12-15T16:28:59.132Z,23.73
2022-12-15T16:31:34.233Z,24.47
2022-12-15T16:34:07.484Z,22.67
2022-12-15T16:36:36.847Z,24.87
2022-12-15T16:42:18.411Z,25.60
2022-12-15T16:44:58.201Z,24.87
2022-12-15T16:47:27.239Z,24.93
2022-12-15T16:49:58.244Z,25.30
2022-12-15T16:52:31.122Z,26.23
2022-12-15T16:55:16.900Z,26.87
2022-12-15T16:57:49.886Z,24.83
2022-12-15T17:00:23.173Z,25.90
2022-12-15T17:05:38.028Z,27.17
2022-12-15T17:08:10.087Z,25.23
2022-12-15T17:10:39.449Z,27.20
2022-12-15T17:13:42.121Z,24.20
2022-12-15T17:16:15.209Z,26.33
2022-12-15T17:18:44.804Z,25.70
2022-12-15T17:21:16.025Z,26.27
2022-12-15T17:23:46.376Z,25.63
2022-12-15T17:26:28.176Z,28.57
2022-12-15T17:29:02.800Z,26.80
2022-12-15T17:31:35.510Z,28.03
2022-12-15T17:34:23.023Z,28.40
2022-12-15T17:36:51.447Z,27.57
2022-12-15T17:39:20.765Z,27.30
2022-12-15T17:41:59.819Z,27.33
2022-12-15T17:44:35.595Z,28.10
2022-12-15T17:47:05.872Z,27.87
2022-12-15T17:49:37.594Z,29.47
2022-12-15T17:52:09.345Z,30.10
2022-12-15T17:54:41.585Z,27.83
2022-12-15T17:57:12.055Z,29.90
2022-12-15T17:59:43.181Z,28.80
2022-12-15T18:02:14.888Z,27.87
2022-12-15T18:04:57.291Z,28.83
2022-12-15T18:07:26.179Z,28.43
2022-12-15T18:09:57.189Z,30.87
2022-12-15T18:12:27.766Z,27.60
2022-12-15T18:14:58.966Z,29.87
2022-12-15T18:17:28.488Z,28.97
2022-12-15T18:19:59.419Z,29.50
2022-12-15T18:22:28.208Z,31.73
2022-12-15T18:24:59.423Z,30.40
2022-12-15T18:27:29.646Z,30.23
2022-12-15T18:30:01.404Z,29.93
2022-12-15T18:32:31.491Z,31.63
2022-12-15T18:35:00.320Z,30.00
2022-12-15T18:37:43.224Z,31.07
2022-12-15T18:40:27.845Z,30.33
2022-12-15T18:45:43.003Z,30.27
2022-12-15T18:48:29.293Z,31.37
2022-12-15T18:51:01.902Z,32.43
2022-12-15T18:53:32.886Z,30.27
2022-12-15T18:56:06.995Z,32.33
2022-12-15T18:58:43.488Z,30.43
2022-12-15T19:01:13.522Z,30.40
2022-12-15T19:03:42.087Z,30.37
2022-12-15T19:06:25.475Z,31.53
2022-12-15T19:08:54.177Z,29.60
2022-12-15T19:11:30.832Z,30.73
2022-12-15T19:17:11.534Z,32.17
2022-12-15T19:19:57.810Z,29.90
2022-12-15T19:22:30.134Z,33.13
2022-12-15T19:24:59.404Z,29.57
2022-12-15T19:27:28.859Z,30.60
2022-12-15T19:29:57.433Z,31.43
2022-12-15T19:32:27.495Z,32.00
2022-12-15T19:34:56.351Z,31.37
2022-12-15T19:37:28.991Z,31.60
2022-12-15T19:40:00.257Z,31.50
2022-12-15T19:42:49.324Z,31.40
2022-12-15T19:45:20.155Z,32.37
2022-12-15T19:48:44.312Z,31.57
2022-12-15T19:51:18.586Z,31.20
2022-12-15T19:53:54.013Z,30.30
2022-12-15T19:56:31.143Z,30.07
2022-12-15T19:59:26.980Z,31.23
2022-12-15T20:07:56.503Z,31.23
2022-12-15T20:10:35.308Z,27.87
2022-12-15T20:13:15.908Z,30.50
2022-12-15T20:15:59.810Z,29.27
2022-12-15T20:28:24.231Z,25.93
2022-12-15T20:53:55.646Z,23.00
2022-12-15T21:02:21.487Z,24.50
2022-12-15T21:04:52.082Z,20.23
2022-12-15T21:07:23.939Z,22.77
2022-12-15T21:09:53.220Z,20.87
2022-12-15T21:12:24.944Z,21.63
2022-12-15T21:15:03.925Z,20.67
2022-12-15T21:17:36.241Z,21.73
2022-12-15T21:20:10.668Z,17.33
2022-12-15T21:22:42.908Z,19.87
2022-12-15T21:25:24.166Z,18.57
2022-12-15T21:27:57.291Z,17.70
2022-12-15T21:30:26.539Z,19.17
2022-12-15T21:32:57.221Z,17.57
2022-12-15T21:35:31.918Z,17.23
2022-12-15T21:38:02.432Z,17.43
2022-12-15T21:40:32.154Z,16.73
2022-12-15T21:43:01.023Z,18.33
2022-12-15T21:45:29.833Z,16.73
2022-12-15T21:48:16.469Z,15.50
2022-12-15T22:06:59.789Z,15.70
2022-12-15T22:09:32.828Z,14.30
2022-12-15T22:12:02.855Z,16.00
2022-12-15T22:14:35.233Z,16.23
2022-12-15T22:17:16.618Z,14.73
2022-12-15T22:19:45.721Z,15.50
2022-12-15T22:22:18.244Z,15.93
2022-12-15T22:24:49.149Z,13.53
2022-12-15T22:27:21.502Z,14.63
2022-12-15T22:29:51.931Z,14.33
2022-12-15T22:32:20.911Z,16.70
2022-12-15T22:34:49.521Z,16.40
2022-12-15T22:37:20.332Z,15.43
2022-12-15T22:39:49.732Z,14.23
2022-12-15T22:42:21.236Z,16.17
2022-12-15T22:44:53.521Z,15.50
2022-12-15T22:47:25.108Z,14.63
2022-12-15T22:49:54.593Z,14.53
2022-12-15T22:52:26.264Z,15.67
2022-12-15T22:54:56.899Z,15.17
2022-12-15T22:57:28.336Z,14.37
2022-12-15T23:00:03.011Z,15.00
2022-12-15T23:02:37.081Z,14.80
2022-12-15T23:05:07.099Z,16.27
2022-12-15T23:07:41.374Z,17.30
2022-12-15T23:10:28.078Z,15.37
2022-12-15T23:12:56.660Z,15.63
2022-12-15T23:15:47.377Z,16.50
2022-12-15T23:18:16.095Z,17.47
2022-12-15T23:20:44.726Z,17.17
2022-12-15T23:23:15.560Z,16.80
2022-12-15T23:25:44.231Z,16.53
2022-12-15T23:28:12.685Z,17.33
2022-12-15T23:30:40.796Z,17.37
2022-12-15T23:33:08.933Z,17.50
2022-12-15T23:35:37.328Z,18.47
2022-12-15T23:38:05.288Z,17.07
2022-12-15T23:40:35.084Z,17.27
2022-12-15T23:43:03.166Z,19.43
2022-12-15T23:45:31.655Z,19.00
2022-12-15T23:47:59.819Z,18.30
2022-12-15T23:50:28.086Z,17.73
2022-12-15T23:52:56.489Z,17.60
2022-12-15T23:55:25.294Z,16.87
2022-12-15T23:57:57.559Z,18.17
